sensor_id;sensor_type;location;lat;lon;timestamp;P1;durP1;ratioP1;P2;durP2;ratioP2
5702;SDS011;2876;51.738;10.050;2022-09-09T00:05:42;1.70;;;1.30;;
5702;SDS011;2876;51.738;10.050;2022-09-09T00:31:19;2.83;;;1.40;;
5702;SDS011;2876;51.738;10.050;2022-09-09T00:37:28;7.70;;;2.07;;
5702;SDS011;2876;51.738;10.050;2022-09-09T00:43:36;7.13;;;1.77;;
5702;SDS011;2876;51.738;10.050;2022-09-09T01:02:28;2.53;;;1.87;;
5702;SDS011;2876;51.738;10.050;2022-09-09T01:14:45;4.00;;;1.70;;
5702;SDS011;2876;51.738;10.050;2022-09-09T01:20:55;1.90;;;1.70;;
5702;SDS011;2876;51.738;10.050;2022-09-09T01:27:21;2.57;;;1.87;;
5702;SDS011;2876;51.738;10.050;2022-09-09T01:33:24;2.27;;;1.87;;
5702;SDS011;2876;51.738;10.050;2022-09-09T01:39:26;2.40;;;2.03;;
5702;SDS011;2876;51.738;10.050;2022-09-09T01:45:29;7.00;;;2.60;;
5702;SDS011;2876;51.738;10.050;2022-09-09T01:51:32;5.83;;;2.00;;
5702;SDS011;2876;51.738;10.050;2022-09-09T01:57:49;4.90;;;2.30;;
5702;SDS011;2876;51.738;10.050;2022-09-09T02:04:08;2.90;;;1.80;;
5702;SDS011;2876;51.738;10.050;2022-09-09T02:10:55;1.93;;;1.73;;
5702;SDS011;2876;51.738;10.050;2022-09-09T02:17:11;3.37;;;2.00;;
5702;SDS011;2876;51.738;10.050;2022-09-09T02:23:20;3.60;;;1.90;;
5702;SDS011;2876;51.738;10.050;2022-09-09T02:29:24;2.90;;;2.00;;
5702;SDS011;2876;51.738;10.050;2022-09-09T02:35:31;4.10;;;2.00;;
5702;SDS011;2876;51.738;10.050;2022-09-09T02:41:41;5.77;;;2.80;;
5702;SDS011;2876;51.738;10.050;2022-09-09T02:54:10;7.90;;;1.80;;
5702;SDS011;2876;51.738;10.050;2022-09-09T03:00:33;3.47;;;2.17;;
5702;SDS011;2876;51.738;10.050;2022-09-09T03:06:37;2.97;;;2.10;;
5702;SDS011;2876;51.738;10.050;2022-09-09T03:12:39;2.70;;;2.03;;
5702;SDS011;2876;51.738;10.050;2022-09-09T03:18:40;4.50;;;2.50;;
5702;SDS011;2876;51.738;10.050;2022-09-09T03:24:43;4.13;;;2.30;;
5702;SDS011;2876;51.738;10.050;2022-09-09T03:30:45;8.37;;;2.40;;
5702;SDS011;2876;51.738;10.050;2022-09-09T03:36:47;5.47;;;2.30;;
5702;SDS011;2876;51.738;10.050;2022-09-09T03:42:50;2.63;;;2.00;;
5702;SDS011;2876;51.738;10.050;2022-09-09T03:48:52;4.73;;;2.17;;
5702;SDS011;2876;51.738;10.050;2022-09-09T03:54:54;2.30;;;2.10;;
5702;SDS011;2876;51.738;10.050;2022-09-09T04:01:02;2.23;;;2.03;;
5702;SDS011;2876;51.738;10.050;2022-09-09T04:07:17;3.73;;;2.60;;
5702;SDS011;2876;51.738;10.050;2022-09-09T04:13:19;15.33;;;3.20;;
5702;SDS011;2876;51.738;10.050;2022-09-09T04:19:21;6.13;;;2.70;;
5702;SDS011;2876;51.738;10.050;2022-09-09T04:25:23;7.07;;;2.53;;
5702;SDS011;2876;51.738;10.050;2022-09-09T04:31:25;5.93;;;2.23;;
5702;SDS011;2876;51.738;10.050;2022-09-09T04:37:27;9.37;;;2.53;;
5702;SDS011;2876;51.738;10.050;2022-09-09T04:43:29;3.60;;;1.93;;
5702;SDS011;2876;51.738;10.050;2022-09-09T04:49:32;7.73;;;2.33;;
5702;SDS011;2876;51.738;10.050;2022-09-09T04:55:34;6.03;;;2.43;;
5702;SDS011;2876;51.738;10.050;2022-09-09T05:01:36;6.70;;;2.53;;
5702;SDS011;2876;51.738;10.050;2022-09-09T05:07:38;4.87;;;2.30;;
5702;SDS011;2876;51.738;10.050;2022-09-09T05:13:40;4.63;;;2.40;;
5702;SDS011;2876;51.738;10.050;2022-09-09T05:19:41;4.67;;;2.00;;
5702;SDS011;2876;51.738;10.050;2022-09-09T05:25:52;2.30;;;2.10;;
5702;SDS011;2876;51.738;10.050;2022-09-09T05:31:59;4.97;;;2.13;;
5702;SDS011;2876;51.738;10.050;2022-09-09T05:38:01;7.10;;;2.17;;
5702;SDS011;2876;51.738;10.050;2022-09-09T05:44:03;3.23;;;1.80;;
5702;SDS011;2876;51.738;10.050;2022-09-09T05:50:06;5.13;;;2.33;;
5702;SDS011;2876;51.738;10.050;2022-09-09T05:56:15;6.33;;;2.30;;
5702;SDS011;2876;51.738;10.050;2022-09-09T06:02:29;2.03;;;1.40;;
5702;SDS011;2876;51.738;10.050;2022-09-09T06:08:31;4.53;;;1.90;;
5702;SDS011;2876;51.738;10.050;2022-09-09T06:14:40;4.60;;;1.80;;
5702;SDS011;2876;51.738;10.050;2022-09-09T06:20:53;3.90;;;2.00;;
5702;SDS011;2876;51.738;10.050;2022-09-09T06:27:05;8.20;;;1.93;;
5702;SDS011;2876;51.738;10.050;2022-09-09T06:33:08;3.40;;;1.70;;
5702;SDS011;2876;51.738;10.050;2022-09-09T06:39:10;4.13;;;1.83;;
5702;SDS011;2876;51.738;10.050;2022-09-09T06:45:15;4.90;;;2.00;;
5702;SDS011;2876;51.738;10.050;2022-09-09T06:51:19;3.93;;;1.80;;
5702;SDS011;2876;51.738;10.050;2022-09-09T06:57:23;4.00;;;1.50;;
5702;SDS011;2876;51.738;10.050;2022-09-09T07:03:38;2.00;;;1.20;;
5702;SDS011;2876;51.738;10.050;2022-09-09T07:09:40;5.60;;;1.50;;
5702;SDS011;2876;51.738;10.050;2022-09-09T07:15:42;3.77;;;1.60;;
5702;SDS011;2876;51.738;10.050;2022-09-09T07:21:44;5.63;;;1.30;;
5702;SDS011;2876;51.738;10.050;2022-09-09T07:27:46;7.37;;;1.60;;
5702;SDS011;2876;51.738;10.050;2022-09-09T07:33:48;5.47;;;1.50;;
5702;SDS011;2876;51.738;10.050;2022-09-09T07:39:50;6.13;;;2.10;;
5702;SDS011;2876;51.738;10.050;2022-09-09T07:45:57;4.30;;;1.37;;
5702;SDS011;2876;51.738;10.050;2022-09-09T07:52:00;3.17;;;1.53;;
5702;SDS011;2876;51.738;10.050;2022-09-09T07:58:02;3.57;;;1.53;;
5702;SDS011;2876;51.738;10.050;2022-09-09T08:04:05;2.37;;;1.33;;
5702;SDS011;2876;51.738;10.050;2022-09-09T08:10:10;3.57;;;1.70;;
5702;SDS011;2876;51.738;10.050;2022-09-09T08:16:13;2.60;;;1.30;;
5702;SDS011;2876;51.738;10.050;2022-09-09T08:22:24;3.97;;;1.50;;
5702;SDS011;2876;51.738;10.050;2022-09-09T08:28:27;4.70;;;1.50;;
5702;SDS011;2876;51.738;10.050;2022-09-09T08:34:29;16.60;;;1.90;;
5702;SDS011;2876;51.738;10.050;2022-09-09T08:40:32;3.03;;;1.40;;
5702;SDS011;2876;51.738;10.050;2022-09-09T08:46:47;6.17;;;1.33;;
5702;SDS011;2876;51.738;10.050;2022-09-09T08:53:24;2.60;;;1.27;;
5702;SDS011;2876;51.738;10.050;2022-09-09T08:59:34;4.53;;;1.50;;
5702;SDS011;2876;51.738;10.050;2022-09-09T09:06:21;13.40;;;1.63;;
5702;SDS011;2876;51.738;10.050;2022-09-09T09:12:10;6.97;;;1.70;;
5702;SDS011;2876;51.738;10.050;2022-09-09T09:18:20;3.17;;;1.80;;
5702;SDS011;2876;51.738;10.050;2022-09-09T09:24:23;3.50;;;1.70;;
5702;SDS011;2876;51.738;10.050;2022-09-09T09:30:40;4.30;;;1.80;;
5702;SDS011;2876;51.738;10.050;2022-09-09T09:36:55;2.20;;;1.50;;
5702;SDS011;2876;51.738;10.050;2022-09-09T09:43:02;2.30;;;1.33;;
5702;SDS011;2876;51.738;10.050;2022-09-09T09:49:10;3.40;;;1.60;;
5702;SDS011;2876;51.738;10.050;2022-09-09T09:55:12;4.10;;;1.63;;
5702;SDS011;2876;51.738;10.050;2022-09-09T10:01:22;3.40;;;1.50;;
5702;SDS011;2876;51.738;10.050;2022-09-09T10:07:28;3.77;;;1.30;;
5702;SDS011;2876;51.738;10.050;2022-09-09T10:19:55;6.03;;;1.83;;
5702;SDS011;2876;51.738;10.050;2022-09-09T10:32:48;4.23;;;1.67;;
5702;SDS011;2876;51.738;10.050;2022-09-09T10:45:13;4.20;;;1.50;;
5702;SDS011;2876;51.738;10.050;2022-09-09T10:58:25;4.73;;;1.30;;
5702;SDS011;2876;51.738;10.050;2022-09-09T11:04:44;6.40;;;1.37;;
5702;SDS011;2876;51.738;10.050;2022-09-09T11:11:15;5.50;;;1.40;;
5702;SDS011;2876;51.738;10.050;2022-09-09T11:17:50;2.93;;;1.50;;
5702;SDS011;2876;51.738;10.050;2022-09-09T11:24:01;4.67;;;1.47;;
5702;SDS011;2876;51.738;10.050;2022-09-09T11:43:12;4.70;;;1.33;;
5702;SDS011;2876;51.738;10.050;2022-09-09T11:49:44;3.03;;;1.13;;
5702;SDS011;2876;51.738;10.050;2022-09-09T11:55:46;2.67;;;1.50;;
5702;SDS011;2876;51.738;10.050;2022-09-09T12:01:50;2.63;;;1.10;;
5702;SDS011;2876;51.738;10.050;2022-09-09T12:07:58;2.73;;;1.50;;
5702;SDS011;2876;51.738;10.050;2022-09-09T12:14:03;4.10;;;1.27;;
5702;SDS011;2876;51.738;10.050;2022-09-09T12:32:36;2.37;;;1.20;;
5702;SDS011;2876;51.738;10.050;2022-09-09T12:38:40;3.50;;;1.40;;
5702;SDS011;2876;51.738;10.050;2022-09-09T12:44:59;3.57;;;1.27;;
5702;SDS011;2876;51.738;10.050;2022-09-09T12:51:05;3.93;;;1.20;;
5702;SDS011;2876;51.738;10.050;2022-09-09T12:57:19;3.53;;;1.17;;
5702;SDS011;2876;51.738;10.050;2022-09-09T13:03:28;2.13;;;1.33;;
5702;SDS011;2876;51.738;10.050;2022-09-09T13:09:30;2.00;;;1.10;;
5702;SDS011;2876;51.738;10.050;2022-09-09T13:15:32;3.37;;;1.00;;
5702;SDS011;2876;51.738;10.050;2022-09-09T13:21:35;6.70;;;1.40;;
5702;SDS011;2876;51.738;10.050;2022-09-09T13:27:40;2.10;;;1.10;;
5702;SDS011;2876;51.738;10.050;2022-09-09T13:33:52;2.97;;;1.20;;
5702;SDS011;2876;51.738;10.050;2022-09-09T13:39:54;1.90;;;1.10;;
5702;SDS011;2876;51.738;10.050;2022-09-09T13:46:01;3.23;;;1.20;;
5702;SDS011;2876;51.738;10.050;2022-09-09T13:52:14;6.53;;;1.33;;
5702;SDS011;2876;51.738;10.050;2022-09-09T13:58:19;1.83;;;1.00;;
5702;SDS011;2876;51.738;10.050;2022-09-09T14:04:23;3.13;;;1.33;;
5702;SDS011;2876;51.738;10.050;2022-09-09T14:10:25;1.83;;;1.00;;
5702;SDS011;2876;51.738;10.050;2022-09-09T14:16:28;5.60;;;1.70;;
5702;SDS011;2876;51.738;10.050;2022-09-09T14:22:30;4.77;;;1.20;;
5702;SDS011;2876;51.738;10.050;2022-09-09T14:28:32;3.40;;;1.00;;
5702;SDS011;2876;51.738;10.050;2022-09-09T14:34:55;3.43;;;1.07;;
5702;SDS011;2876;51.738;10.050;2022-09-09T14:40:57;3.57;;;1.30;;
5702;SDS011;2876;51.738;10.050;2022-09-09T14:46:59;4.50;;;1.17;;
5702;SDS011;2876;51.738;10.050;2022-09-09T14:53:01;1.80;;;1.00;;
5702;SDS011;2876;51.738;10.050;2022-09-09T14:59:03;1.93;;;1.30;;
5702;SDS011;2876;51.738;10.050;2022-09-09T15:05:05;1.57;;;0.93;;
5702;SDS011;2876;51.738;10.050;2022-09-09T15:11:08;4.63;;;1.60;;
5702;SDS011;2876;51.738;10.050;2022-09-09T15:17:12;3.93;;;1.07;;
5702;SDS011;2876;51.738;10.050;2022-09-09T15:23:15;2.97;;;1.13;;
5702;SDS011;2876;51.738;10.050;2022-09-09T15:29:18;3.67;;;1.00;;
5702;SDS011;2876;51.738;10.050;2022-09-09T15:35:20;1.40;;;0.90;;
5702;SDS011;2876;51.738;10.050;2022-09-09T15:41:22;2.07;;;1.23;;
5702;SDS011;2876;51.738;10.050;2022-09-09T15:47:24;2.40;;;0.97;;
5702;SDS011;2876;51.738;10.050;2022-09-09T15:53:26;2.60;;;1.13;;
5702;SDS011;2876;51.738;10.050;2022-09-09T15:59:29;3.23;;;1.57;;
5702;SDS011;2876;51.738;10.050;2022-09-09T16:05:32;4.30;;;1.43;;
5702;SDS011;2876;51.738;10.050;2022-09-09T16:11:35;3.43;;;1.20;;
5702;SDS011;2876;51.738;10.050;2022-09-09T16:17:39;1.57;;;0.87;;
5702;SDS011;2876;51.738;10.050;2022-09-09T16:23:41;2.93;;;0.93;;
5702;SDS011;2876;51.738;10.050;2022-09-09T16:29:43;3.17;;;1.43;;
5702;SDS011;2876;51.738;10.050;2022-09-09T16:35:45;4.30;;;1.17;;
5702;SDS011;2876;51.738;10.050;2022-09-09T16:41:47;2.90;;;1.23;;
5702;SDS011;2876;51.738;10.050;2022-09-09T16:47:50;3.23;;;1.23;;
5702;SDS011;2876;51.738;10.050;2022-09-09T16:53:52;4.03;;;1.43;;
5702;SDS011;2876;51.738;10.050;2022-09-09T16:59:55;3.10;;;1.33;;
5702;SDS011;2876;51.738;10.050;2022-09-09T17:06:00;5.60;;;1.83;;
5702;SDS011;2876;51.738;10.050;2022-09-09T17:12:05;3.33;;;1.20;;
5702;SDS011;2876;51.738;10.050;2022-09-09T17:18:08;5.53;;;1.30;;
5702;SDS011;2876;51.738;10.050;2022-09-09T17:24:11;1.53;;;1.03;;
5702;SDS011;2876;51.738;10.050;2022-09-09T17:30:13;3.77;;;1.33;;
5702;SDS011;2876;51.738;10.050;2022-09-09T17:36:21;2.40;;;1.07;;
5702;SDS011;2876;51.738;10.050;2022-09-09T17:42:30;3.10;;;1.00;;
5702;SDS011;2876;51.738;10.050;2022-09-09T17:48:32;3.30;;;1.30;;
5702;SDS011;2876;51.738;10.050;2022-09-09T17:54:34;1.30;;;0.90;;
5702;SDS011;2876;51.738;10.050;2022-09-09T18:00:37;1.77;;;1.10;;
5702;SDS011;2876;51.738;10.050;2022-09-09T18:06:40;3.60;;;1.20;;
5702;SDS011;2876;51.738;10.050;2022-09-09T18:12:45;3.73;;;1.20;;
5702;SDS011;2876;51.738;10.050;2022-09-09T18:18:47;4.27;;;1.60;;
5702;SDS011;2876;51.738;10.050;2022-09-09T18:24:50;4.43;;;1.50;;
5702;SDS011;2876;51.738;10.050;2022-09-09T18:30:53;5.60;;;1.33;;
5702;SDS011;2876;51.738;10.050;2022-09-09T18:36:56;2.27;;;1.40;;
5702;SDS011;2876;51.738;10.050;2022-09-09T18:42:58;3.13;;;1.30;;
5702;SDS011;2876;51.738;10.050;2022-09-09T18:49:00;3.27;;;1.40;;
5702;SDS011;2876;51.738;10.050;2022-09-09T18:55:02;3.73;;;1.40;;
5702;SDS011;2876;51.738;10.050;2022-09-09T19:01:08;4.23;;;1.27;;
5702;SDS011;2876;51.738;10.050;2022-09-09T19:07:13;3.43;;;1.20;;
5702;SDS011;2876;51.738;10.050;2022-09-09T19:13:15;5.50;;;1.37;;
5702;SDS011;2876;51.738;10.050;2022-09-09T19:19:18;1.67;;;1.00;;
5702;SDS011;2876;51.738;10.050;2022-09-09T19:25:23;4.40;;;1.57;;
5702;SDS011;2876;51.738;10.050;2022-09-09T19:31:26;1.30;;;1.20;;
5702;SDS011;2876;51.738;10.050;2022-09-09T19:37:29;1.57;;;1.10;;
5702;SDS011;2876;51.738;10.050;2022-09-09T19:43:32;3.90;;;1.47;;
5702;SDS011;2876;51.738;10.050;2022-09-09T19:49:35;1.73;;;1.10;;
5702;SDS011;2876;51.738;10.050;2022-09-09T19:55:37;4.90;;;1.23;;
5702;SDS011;2876;51.738;10.050;2022-09-09T20:01:41;2.30;;;1.13;;
5702;SDS011;2876;51.738;10.050;2022-09-09T20:07:45;2.00;;;1.27;;
5702;SDS011;2876;51.738;10.050;2022-09-09T20:13:47;4.60;;;1.83;;
5702;SDS011;2876;51.738;10.050;2022-09-09T20:19:49;9.97;;;2.80;;
5702;SDS011;2876;51.738;10.050;2022-09-09T20:25:51;1.63;;;1.10;;
5702;SDS011;2876;51.738;10.050;2022-09-09T20:31:54;2.50;;;1.40;;
5702;SDS011;2876;51.738;10.050;2022-09-09T20:37:56;1.33;;;0.83;;
5702;SDS011;2876;51.738;10.050;2022-09-09T20:43:59;2.97;;;1.10;;
5702;SDS011;2876;51.738;10.050;2022-09-09T20:50:13;2.30;;;1.03;;
5702;SDS011;2876;51.738;10.050;2022-09-09T20:56:15;4.17;;;1.17;;
5702;SDS011;2876;51.738;10.050;2022-09-09T21:02:17;1.93;;;1.30;;
5702;SDS011;2876;51.738;10.050;2022-09-09T21:08:19;1.20;;;1.10;;
5702;SDS011;2876;51.738;10.050;2022-09-09T21:14:21;1.00;;;0.90;;
5702;SDS011;2876;51.738;10.050;2022-09-09T21:20:23;3.60;;;1.33;;
5702;SDS011;2876;51.738;10.050;2022-09-09T21:26:26;1.20;;;1.10;;
5702;SDS011;2876;51.738;10.050;2022-09-09T21:32:28;3.27;;;1.10;;
5702;SDS011;2876;51.738;10.050;2022-09-09T21:38:30;2.70;;;1.10;;
5702;SDS011;2876;51.738;10.050;2022-09-09T21:44:33;3.67;;;1.10;;
5702;SDS011;2876;51.738;10.050;2022-09-09T21:50:39;3.17;;;1.10;;
5702;SDS011;2876;51.738;10.050;2022-09-09T21:56:43;2.30;;;1.10;;
5702;SDS011;2876;51.738;10.050;2022-09-09T22:02:45;1.93;;;1.40;;
5702;SDS011;2876;51.738;10.050;2022-09-09T22:08:47;2.40;;;1.33;;
5702;SDS011;2876;51.738;10.050;2022-09-09T22:14:49;2.57;;;1.13;;
5702;SDS011;2876;51.738;10.050;2022-09-09T22:20:53;1.73;;;1.20;;
5702;SDS011;2876;51.738;10.050;2022-09-09T22:26:55;7.80;;;1.63;;
5702;SDS011;2876;51.738;10.050;2022-09-09T22:32:57;1.10;;;0.93;;
5702;SDS011;2876;51.738;10.050;2022-09-09T22:39:01;3.43;;;1.50;;
5702;SDS011;2876;51.738;10.050;2022-09-09T22:45:04;2.03;;;1.40;;
5702;SDS011;2876;51.738;10.050;2022-09-09T22:51:07;2.07;;;1.10;;
5702;SDS011;2876;51.738;10.050;2022-09-09T22:57:14;1.97;;;1.40;;
5702;SDS011;2876;51.738;10.050;2022-09-09T23:03:16;5.13;;;1.27;;
5702;SDS011;2876;51.738;10.050;2022-09-09T23:09:19;3.83;;;1.20;;
5702;SDS011;2876;51.738;10.050;2022-09-09T23:15:21;5.60;;;1.47;;
5702;SDS011;2876;51.738;10.050;2022-09-09T23:21:23;1.50;;;1.30;;
5702;SDS011;2876;51.738;10.050;2022-09-09T23:27:28;3.13;;;1.30;;
5702;SDS011;2876;51.738;10.050;2022-09-09T23:33:32;1.77;;;1.40;;
5702;SDS011;2876;51.738;10.050;2022-09-09T23:39:34;2.30;;;1.33;;
5702;SDS011;2876;51.738;10.050;2022-09-09T23:45:36;3.17;;;1.20;;
5702;SDS011;2876;51.738;10.050;2022-09-09T23:51:38;1.57;;;1.10;;
5702;SDS011;2876;51.738;10.050;2022-09-09T23:57:41;1.70;;;1.30;;
